createdAt,value
2022-08-11T00:01:05.243Z,51.39
2022-08-11T00:03:08.087Z,51.75
2022-08-11T00:05:09.493Z,51.96
2022-08-11T00:07:10.851Z,52.07
2022-08-11T00:09:12.292Z,51.79
2022-08-11T00:11:13.677Z,51.88
2022-08-11T00:13:15.370Z,51.79
2022-08-11T00:15:18.309Z,51.69
2022-08-11T00:17:19.620Z,51.76
2022-08-11T00:20:13.978Z,51.98
2022-08-11T00:22:04.398Z,51.82
2022-08-11T00:24:03.720Z,51.73
2022-08-11T00:26:05.051Z,51.61
2022-08-11T00:28:06.366Z,51.22
2022-08-11T00:30:07.752Z,51.60
2022-08-11T00:32:09.367Z,51.63
2022-08-11T00:34:10.799Z,51.72
2022-08-11T00:36:13.037Z,51.57
2022-08-11T00:38:14.366Z,51.93
2022-08-11T00:40:15.735Z,52.07
2022-08-11T00:42:17.213Z,52.29
2022-08-11T00:44:18.527Z,52.00
2022-08-11T00:46:19.834Z,51.60
2022-08-11T00:48:21.187Z,51.72
2022-08-11T00:50:22.503Z,51.48
2022-08-11T00:52:23.852Z,51.47
2022-08-11T00:54:25.276Z,51.66
2022-08-11T00:56:26.627Z,51.12
2022-08-11T00:58:27.927Z,51.42
2022-08-11T01:00:29.560Z,51.33
2022-08-11T01:02:30.911Z,51.36
2022-08-11T01:04:32.271Z,51.20
2022-08-11T01:06:33.993Z,51.29
2022-08-11T01:08:36.211Z,51.36
2022-08-11T01:10:37.511Z,51.49
2022-08-11T01:12:39.158Z,51.27
2022-08-11T01:14:40.720Z,51.10
2022-08-11T01:16:42.072Z,51.60
2022-08-11T01:18:43.394Z,51.32
2022-08-11T01:20:48.926Z,51.28
2022-08-11T01:22:51.734Z,51.86
2022-08-11T01:24:53.043Z,51.25
2022-08-11T01:26:54.392Z,51.17
2022-08-11T01:28:55.699Z,51.37
2022-08-11T01:30:57.003Z,51.13
2022-08-11T01:32:58.357Z,51.09
2022-08-11T01:34:59.662Z,51.10
2022-08-11T01:37:01.005Z,51.58
2022-08-11T01:39:02.371Z,51.71
2022-08-11T01:41:03.718Z,51.88
2022-08-11T01:43:23.482Z,51.55
2022-08-11T01:45:24.830Z,51.23
2022-08-11T01:47:52.868Z,51.60
2022-08-11T01:50:07.663Z,51.18
2022-08-11T01:52:11.399Z,51.51
2022-08-11T01:54:12.694Z,51.62
2022-08-11T01:56:13.990Z,51.42
2022-08-11T01:58:15.332Z,51.67
2022-08-11T02:00:16.651Z,51.34
2022-08-11T02:02:21.473Z,51.57
2022-08-11T02:04:23.100Z,51.46
2022-08-11T02:06:42.987Z,51.70
2022-08-11T02:08:44.351Z,51.65
2022-08-11T02:11:12.711Z,51.06
2022-08-11T02:13:15.535Z,51.20
2022-08-11T02:15:16.847Z,51.42
2022-08-11T02:17:18.155Z,51.65
2022-08-11T02:19:38.157Z,51.59
2022-08-11T02:21:58.162Z,51.46
2022-08-11T02:24:06.670Z,51.56
2022-08-11T02:26:09.153Z,51.61
2022-08-11T02:28:11.134Z,51.57
2022-08-11T02:30:12.451Z,51.41
2022-08-11T02:32:32.607Z,51.43
2022-08-11T02:34:33.955Z,51.75
2022-08-11T02:36:35.258Z,51.16
2022-08-11T02:38:36.583Z,51.46
2022-08-11T02:40:37.932Z,51.52
2022-08-11T02:42:39.275Z,51.64
2022-08-11T02:44:40.591Z,51.53
2022-08-11T02:46:42.231Z,51.64
2022-08-11T02:49:02.242Z,51.39
2022-08-11T02:51:03.603Z,51.50
2022-08-11T02:53:04.947Z,51.50
2022-08-11T02:55:06.841Z,51.71
2022-08-11T02:57:11.425Z,51.59
2022-08-11T02:59:31.738Z,50.91
2022-08-11T03:01:33.244Z,51.21
2022-08-11T03:03:36.297Z,51.12
2022-08-11T03:05:37.617Z,51.29
2022-08-11T03:07:38.966Z,51.36
2022-08-11T03:09:40.355Z,51.45
2022-08-11T03:12:00.364Z,51.93
2022-08-11T03:14:20.299Z,51.41
2022-08-11T03:16:40.467Z,51.78
2022-08-11T03:18:41.782Z,51.33
2022-08-11T03:20:43.651Z,51.57
2022-08-11T03:22:45.083Z,51.38
2022-08-11T03:24:46.550Z,51.59
2022-08-11T03:26:47.975Z,51.65
2022-08-11T03:28:49.403Z,51.57
2022-08-11T03:30:50.764Z,51.42
2022-08-11T03:33:12.072Z,51.03
2022-08-11T03:35:21.325Z,51.43
2022-08-11T03:37:41.726Z,51.36
2022-08-11T03:39:56.141Z,51.45
2022-08-11T03:42:03.865Z,51.77
2022-08-11T03:44:06.763Z,51.25
2022-08-11T03:46:08.135Z,51.02
2022-08-11T03:48:09.710Z,51.00
2022-08-11T03:50:11.011Z,51.00
2022-08-11T03:52:12.371Z,51.67
2022-08-11T03:54:16.076Z,51.39
2022-08-11T03:56:19.138Z,51.30
2022-08-11T03:58:20.498Z,51.00
2022-08-11T04:00:21.881Z,51.24
2022-08-11T04:02:23.183Z,51.29
2022-08-11T04:04:24.542Z,51.30
2022-08-11T04:06:25.896Z,51.41
2022-08-11T04:08:27.212Z,51.39
2022-08-11T04:10:35.816Z,50.95
2022-08-11T04:12:37.228Z,51.20
2022-08-11T04:14:57.135Z,51.35
2022-08-11T04:16:58.775Z,51.74
2022-08-11T04:19:00.189Z,51.46
2022-08-11T04:21:01.484Z,51.48
2022-08-11T04:23:03.606Z,51.12
2022-08-11T04:25:04.983Z,51.01
2022-08-11T04:27:07.338Z,50.88
2022-08-11T04:29:11.970Z,51.26
2022-08-11T04:31:13.324Z,51.20
2022-08-11T04:33:37.710Z,51.38
2022-08-11T04:35:39.102Z,51.35
2022-08-11T04:37:40.414Z,51.83
2022-08-11T04:39:41.789Z,51.60
2022-08-11T04:42:03.087Z,51.63
2022-08-11T04:44:06.224Z,51.65
2022-08-11T04:46:08.043Z,51.86
2022-08-11T04:48:28.012Z,51.92
2022-08-11T04:51:09.164Z,51.92
2022-08-11T04:53:28.507Z,51.82
2022-08-11T04:55:48.486Z,51.74
2022-08-11T04:58:10.459Z,51.95
2022-08-11T05:00:30.302Z,51.95
2022-08-11T05:02:31.639Z,52.37
2022-08-11T05:04:51.463Z,52.24
2022-08-11T05:06:52.803Z,52.07
2022-08-11T05:08:54.160Z,52.34
2022-08-11T05:10:55.463Z,52.22
2022-08-11T05:12:56.765Z,52.03
2022-08-11T05:15:16.896Z,52.21
2022-08-11T05:17:36.679Z,52.29
2022-08-11T05:19:56.667Z,52.59
2022-08-11T05:22:16.449Z,52.51
2022-08-11T05:24:36.502Z,52.77
2022-08-11T05:26:56.413Z,52.87
2022-08-11T05:29:19.687Z,52.89
2022-08-11T05:31:40.823Z,53.26
2022-08-11T05:34:00.740Z,53.35
2022-08-11T05:36:03.292Z,53.43
2022-08-11T05:38:23.430Z,53.77
2022-08-11T05:40:43.686Z,53.69
2022-08-11T05:43:11.224Z,54.11
2022-08-11T05:45:58.289Z,53.97
2022-08-11T05:48:11.295Z,54.07
2022-08-11T05:50:33.178Z,54.29
2022-08-11T05:52:55.440Z,54.61
2022-08-11T05:55:16.892Z,54.72
2022-08-11T05:57:42.343Z,54.68
2022-08-11T05:59:39.528Z,54.63
2022-08-11T06:01:40.922Z,55.15
2022-08-11T06:04:01.010Z,55.19
2022-08-11T06:06:02.353Z,55.10
2022-08-11T06:08:03.705Z,55.02
2022-08-11T06:10:05.015Z,55.22
2022-08-11T06:12:06.642Z,55.13
2022-08-11T06:14:08.001Z,55.37
2022-08-11T06:16:09.320Z,54.91
2022-08-11T06:18:11.207Z,54.89
2022-08-11T06:20:13.299Z,54.70
2022-08-11T06:22:14.651Z,55.10
2022-08-11T06:24:15.962Z,54.86
2022-08-11T06:26:17.285Z,54.97
2022-08-11T06:28:21.350Z,54.36
2022-08-11T06:30:23.498Z,54.44
2022-08-11T06:32:24.843Z,54.65
2022-08-11T06:34:27.462Z,54.78
2022-08-11T06:36:29.232Z,54.45
2022-08-11T06:38:30.579Z,54.34
2022-08-11T06:40:31.883Z,53.99
2022-08-11T06:42:33.230Z,53.77
2022-08-11T06:44:34.579Z,53.59
2022-08-11T06:46:39.340Z,53.71
2022-08-11T06:48:40.691Z,53.44
2022-08-11T06:51:00.815Z,53.52
2022-08-11T06:53:02.147Z,53.48
2022-08-11T06:55:06.620Z,53.21
2022-08-11T06:57:29.974Z,52.96
2022-08-11T06:59:50.738Z,52.73
2022-08-11T07:01:52.130Z,52.69
2022-08-11T07:03:54.542Z,52.51
2022-08-11T07:05:55.933Z,52.81
2022-08-11T07:08:34.930Z,52.54
2022-08-11T07:10:55.568Z,52.59
2022-08-11T07:13:44.842Z,52.66
2022-08-11T07:16:12.910Z,52.45
2022-08-11T07:18:23.119Z,53.00
2022-08-11T07:20:43.211Z,52.79
2022-08-11T07:23:10.454Z,52.30
2022-08-11T07:25:30.658Z,52.53
2022-08-11T07:27:50.428Z,52.16
2022-08-11T07:29:52.071Z,53.07
2022-08-11T07:31:54.010Z,52.52
2022-08-11T07:34:05.879Z,52.28
2022-08-11T07:36:13.008Z,52.27
2022-08-11T07:38:15.582Z,52.48
2022-08-11T07:40:19.499Z,52.57
2022-08-11T07:42:21.458Z,52.42
2022-08-11T07:44:29.402Z,51.95
2022-08-11T07:46:52.378Z,52.60
2022-08-11T07:49:12.099Z,52.10
2022-08-11T07:51:31.988Z,52.28
2022-08-11T07:53:33.317Z,52.39
2022-08-11T07:55:48.987Z,51.66
2022-08-11T07:58:19.596Z,51.72
2022-08-11T08:00:40.393Z,51.50
2022-08-11T08:03:00.435Z,51.04
2022-08-11T08:05:20.463Z,51.22
2022-08-11T08:07:40.397Z,51.32
2022-08-11T08:10:00.590Z,50.99
2022-08-11T08:12:20.789Z,50.95
2022-08-11T08:14:40.674Z,50.21
2022-08-11T08:17:00.675Z,50.40
2022-08-11T08:19:01.985Z,50.20
2022-08-11T08:21:12.230Z,49.80
2022-08-11T08:23:13.715Z,50.29
2022-08-11T08:25:15.024Z,49.67
2022-08-11T08:27:16.403Z,50.08
2022-08-11T08:29:36.180Z,49.95
2022-08-11T08:31:37.478Z,49.38
2022-08-11T08:33:38.878Z,49.35
2022-08-11T08:35:54.241Z,49.76
2022-08-11T08:37:59.662Z,49.79
2022-08-11T08:40:00.969Z,49.46
2022-08-11T08:42:02.275Z,49.35
2022-08-11T08:44:27.716Z,49.44
2022-08-11T08:46:25.034Z,49.14
2022-08-11T08:48:26.355Z,48.97
2022-08-11T08:50:48.589Z,48.77
2022-08-11T08:52:53.310Z,49.60
2022-08-11T08:54:54.610Z,49.33
2022-08-11T08:56:55.942Z,49.26
2022-08-11T08:58:57.679Z,49.23
2022-08-11T09:00:59.085Z,49.21
2022-08-11T09:03:17.227Z,49.45
2022-08-11T09:05:25.848Z,49.33
2022-08-11T09:07:30.265Z,48.90
2022-08-11T09:09:34.092Z,48.61
2022-08-11T09:11:50.523Z,48.68
2022-08-11T09:14:06.593Z,48.05
2022-08-11T09:16:09.650Z,48.21
2022-08-11T09:18:11.236Z,48.26
2022-08-11T09:20:12.639Z,48.08
2022-08-11T09:22:32.970Z,47.46
2022-08-11T09:24:53.254Z,47.43
2022-08-11T09:27:01.097Z,47.78
2022-08-11T09:29:02.882Z,47.93
2022-08-11T09:31:04.189Z,47.58
2022-08-11T09:33:05.625Z,47.63
2022-08-11T09:35:06.947Z,47.95
2022-08-11T09:37:53.643Z,47.53
2022-08-11T09:40:06.944Z,47.65
2022-08-11T09:42:11.388Z,47.19
2022-08-11T09:44:36.798Z,47.13
2022-08-11T09:46:39.728Z,46.81
2022-08-11T09:48:41.071Z,45.90
2022-08-11T09:50:42.426Z,46.23
2022-08-11T09:53:03.624Z,46.78
2022-08-11T09:55:11.108Z,47.32
2022-08-11T09:57:31.676Z,47.08
2022-08-11T09:59:33.228Z,46.82
2022-08-11T10:01:34.663Z,47.21
2022-08-11T10:03:40.342Z,47.08
2022-08-11T10:06:04.540Z,46.86
2022-08-11T10:08:08.677Z,47.17
2022-08-11T10:10:10.063Z,46.72
2022-08-11T10:12:12.078Z,47.09
2022-08-11T10:14:34.980Z,46.76
2022-08-11T10:16:36.603Z,47.04
2022-08-11T10:18:49.583Z,46.93
2022-08-11T10:20:50.912Z,46.36
2022-08-11T10:23:10.726Z,46.33
2022-08-11T10:25:41.341Z,46.54
2022-08-11T10:28:17.062Z,46.84
2022-08-11T10:30:22.591Z,47.17
2022-08-11T10:32:57.961Z,47.41
2022-08-11T10:35:00.891Z,47.56
2022-08-11T10:37:03.109Z,47.00
2022-08-11T10:39:04.527Z,47.27
2022-08-11T10:41:24.762Z,47.33
2022-08-11T10:44:01.220Z,46.38
2022-08-11T10:46:06.226Z,46.18
2022-08-11T10:48:10.001Z,45.65
2022-08-11T10:50:32.489Z,45.66
2022-08-11T10:52:52.522Z,45.66
2022-08-11T10:55:12.408Z,46.49
2022-08-11T10:57:32.226Z,47.06
2022-08-11T10:59:33.526Z,47.27
2022-08-11T11:01:34.977Z,46.77
2022-08-11T11:03:38.039Z,46.58
2022-08-11T11:05:39.330Z,46.34
2022-08-11T11:08:02.983Z,45.90
2022-08-11T11:10:04.312Z,45.99
2022-08-11T11:12:24.391Z,45.97
2022-08-11T11:14:46.805Z,46.12
2022-08-11T11:17:10.210Z,46.18
2022-08-11T11:19:11.724Z,46.97
2022-08-11T11:21:13.086Z,46.80
2022-08-11T11:23:14.430Z,47.05
2022-08-11T11:25:16.788Z,46.08
2022-08-11T11:27:18.131Z,45.79
2022-08-11T11:29:20.483Z,46.10
2022-08-11T11:31:22.607Z,45.58
2022-08-11T11:33:23.959Z,45.91
2022-08-11T11:35:26.843Z,45.79
2022-08-11T11:37:28.244Z,45.82
2022-08-11T11:39:29.710Z,45.87
2022-08-11T11:41:31.100Z,45.26
2022-08-11T11:43:32.443Z,44.96
2022-08-11T11:45:33.792Z,45.98
2022-08-11T11:47:35.875Z,45.51
2022-08-11T11:49:40.363Z,45.96
2022-08-11T11:51:41.699Z,45.68
2022-08-11T11:53:45.430Z,45.67
2022-08-11T11:55:46.749Z,45.51
2022-08-11T11:58:06.588Z,45.88
2022-08-11T12:00:33.707Z,45.61
2022-08-11T12:02:35.245Z,46.31
2022-08-11T12:04:37.084Z,46.05
2022-08-11T12:06:38.806Z,45.92
2022-08-11T12:08:40.266Z,46.22
2022-08-11T12:10:41.603Z,46.44
2022-08-11T12:13:01.686Z,46.13
2022-08-11T12:15:02.996Z,45.12
2022-08-11T12:17:04.339Z,44.50
2022-08-11T12:19:05.668Z,44.98
2022-08-11T12:21:06.979Z,45.11
2022-08-11T12:23:26.830Z,44.62
2022-08-11T12:25:50.006Z,44.38
2022-08-11T12:27:57.018Z,44.02
2022-08-11T12:29:58.402Z,45.06
2022-08-11T12:32:00.549Z,44.04
2022-08-11T12:34:02.280Z,45.76
2022-08-11T12:36:03.583Z,44.41
2022-08-11T12:38:10.675Z,44.90
2022-08-11T12:40:49.631Z,44.74
2022-08-11T12:43:21.246Z,44.99
2022-08-11T12:45:29.603Z,46.33
2022-08-11T12:48:57.201Z,46.57
2022-08-11T12:50:30.752Z,45.32
2022-08-11T12:52:33.997Z,46.11
2022-08-11T12:54:35.315Z,46.00
2022-08-11T12:56:55.584Z,45.49
2022-08-11T12:59:15.798Z,44.81
2022-08-11T13:01:36.009Z,45.66
2022-08-11T13:03:56.736Z,44.76
2022-08-11T13:05:58.330Z,45.57
2022-08-11T13:07:59.663Z,48.19
2022-08-11T13:10:01.717Z,47.29
2022-08-11T13:12:21.580Z,45.23
2022-08-11T13:14:22.900Z,45.55
2022-08-11T13:16:24.235Z,44.71
2022-08-11T13:18:27.701Z,44.14
2022-08-11T13:20:29.058Z,43.74
2022-08-11T13:22:30.402Z,44.57
2022-08-11T13:24:36.811Z,44.62
2022-08-11T13:26:47.293Z,44.95
2022-08-11T13:28:51.128Z,45.33
2022-08-11T13:31:11.077Z,45.76
2022-08-11T13:33:12.444Z,45.28
2022-08-11T13:35:15.148Z,45.50
2022-08-11T13:37:16.516Z,45.74
2022-08-11T13:39:18.058Z,45.99
2022-08-11T13:41:39.448Z,45.62
2022-08-11T13:43:41.419Z,44.67
2022-08-11T13:45:42.735Z,44.39
2022-08-11T13:47:44.039Z,44.69
2022-08-11T13:49:45.342Z,44.83
2022-08-11T13:51:46.719Z,45.33
2022-08-11T13:53:48.059Z,45.33
2022-08-11T13:55:51.351Z,45.20
2022-08-11T13:58:08.271Z,44.52
2022-08-11T14:00:26.959Z,45.22
2022-08-11T14:02:30.827Z,45.03
2022-08-11T14:04:33.611Z,45.93
2022-08-11T14:06:35.591Z,45.65
2022-08-11T14:08:38.411Z,46.59
2022-08-11T14:10:40.347Z,45.73
2022-08-11T14:13:00.459Z,45.61
2022-08-11T14:15:07.556Z,45.27
2022-08-11T14:17:09.971Z,45.50
2022-08-11T14:19:11.785Z,45.98
2022-08-11T14:21:31.975Z,46.60
2022-08-11T14:23:33.369Z,47.35
2022-08-11T14:26:00.767Z,47.47
2022-08-11T14:28:31.934Z,47.17
2022-08-11T14:30:37.083Z,47.54
2022-08-11T14:32:53.077Z,47.03
2022-08-11T14:34:58.778Z,46.48
2022-08-11T14:37:00.094Z,45.84
2022-08-11T14:39:01.454Z,46.85
2022-08-11T14:41:21.717Z,46.36
2022-08-11T14:44:13.246Z,46.30
2022-08-11T14:46:21.615Z,46.00
2022-08-11T14:48:22.930Z,47.06
2022-08-11T14:50:24.360Z,46.98
2022-08-11T14:52:25.659Z,46.46
2022-08-11T14:54:45.920Z,46.53
2022-08-11T14:56:47.268Z,46.16
2022-08-11T14:58:48.673Z,45.92
2022-08-11T15:00:50.049Z,46.33
2022-08-11T15:03:10.706Z,46.10
2022-08-11T15:05:12.679Z,46.17
2022-08-11T15:07:16.970Z,46.33
2022-08-11T15:09:18.818Z,46.28
2022-08-11T15:11:38.931Z,46.21
2022-08-11T15:13:40.304Z,45.95
2022-08-11T15:16:05.615Z,46.16
2022-08-11T15:18:07.219Z,46.98
2022-08-11T15:20:27.075Z,47.03
2022-08-11T15:22:46.995Z,46.33
2022-08-11T15:24:48.320Z,46.56
2022-08-11T15:27:08.113Z,46.18
2022-08-11T15:29:28.051Z,46.00
2022-08-11T15:31:49.548Z,46.35
2022-08-11T15:34:09.498Z,45.76
2022-08-11T15:36:29.423Z,45.61
2022-08-11T15:38:33.427Z,45.63
2022-08-11T15:40:53.327Z,45.01
2022-08-11T15:43:13.217Z,44.55
2022-08-11T15:45:32.961Z,43.79
2022-08-11T15:47:34.423Z,44.58
2022-08-11T15:50:11.095Z,43.46
2022-08-11T15:52:01.864Z,45.47
2022-08-11T15:54:08.602Z,44.52
2022-08-11T15:56:11.098Z,44.46
2022-08-11T15:58:31.039Z,44.08
2022-08-11T16:00:59.018Z,44.31
2022-08-11T16:03:24.440Z,44.44
2022-08-11T16:05:51.354Z,43.87
2022-08-11T16:07:54.663Z,43.66
2022-08-11T16:10:00.261Z,44.53
2022-08-11T16:12:01.927Z,44.68
2022-08-11T16:14:22.046Z,44.54
2022-08-11T16:16:23.382Z,44.17
2022-08-11T16:18:24.694Z,44.10
2022-08-11T16:20:26.059Z,42.50
2022-08-11T16:22:38.414Z,42.39
2022-08-11T16:27:03.406Z,43.39
2022-08-11T16:27:10.077Z,43.70
2022-08-11T16:29:14.198Z,43.56
2022-08-11T16:31:15.503Z,43.58
2022-08-11T16:33:48.468Z,44.02
2022-08-11T16:35:56.936Z,44.12
2022-08-11T16:38:16.920Z,44.57
2022-08-11T16:40:18.274Z,44.43
2022-08-11T16:43:05.289Z,44.05
2022-08-11T16:45:18.157Z,44.25
2022-08-11T16:48:03.572Z,44.92
2022-08-11T16:49:40.772Z,44.63
2022-08-11T16:51:42.081Z,44.64
2022-08-11T16:54:04.146Z,44.55
2022-08-11T16:56:05.599Z,44.81
2022-08-11T16:58:25.376Z,44.47
2022-08-11T17:00:26.784Z,44.74
2022-08-11T17:02:46.986Z,44.58
2022-08-11T17:05:06.921Z,44.56
2022-08-11T17:07:50.104Z,44.59
2022-08-11T17:10:06.579Z,44.25
2022-08-11T17:12:46.759Z,44.81
2022-08-11T17:14:48.081Z,45.13
2022-08-11T17:16:49.383Z,45.34
2022-08-11T17:18:52.786Z,45.29
2022-08-11T17:20:55.651Z,45.55
2022-08-11T17:23:15.735Z,45.60
2022-08-11T17:25:17.085Z,45.56
2022-08-11T17:27:18.421Z,45.67
2022-08-11T17:29:19.798Z,47.43
2022-08-11T17:31:40.053Z,46.43
2022-08-11T17:33:59.849Z,44.71
2022-08-11T17:36:01.195Z,45.63
2022-08-11T17:38:03.945Z,45.11
2022-08-11T17:40:05.305Z,45.30
2022-08-11T17:42:25.148Z,44.74
2022-08-11T17:44:45.003Z,44.50
2022-08-11T17:47:06.392Z,44.93
2022-08-11T17:49:07.890Z,44.85
2022-08-11T17:51:09.238Z,44.78
2022-08-11T17:53:29.415Z,44.96
2022-08-11T17:55:51.819Z,44.33
2022-08-11T17:58:13.146Z,44.56
2022-08-11T18:00:14.538Z,43.68
2022-08-11T18:02:35.271Z,45.46
2022-08-11T18:04:36.630Z,45.61
2022-08-11T18:06:37.984Z,45.84
2022-08-11T18:08:58.102Z,46.27
2022-08-11T18:12:09.850Z,46.48
2022-08-11T18:13:58.128Z,45.73
2022-08-11T18:16:17.984Z,46.23
2022-08-11T18:18:37.811Z,46.63
2022-08-11T18:20:57.582Z,46.57
2022-08-11T18:23:17.463Z,46.29
2022-08-11T18:25:40.778Z,45.99
2022-08-11T18:28:03.210Z,46.14
2022-08-11T18:30:23.449Z,46.12
2022-08-11T18:32:50.010Z,46.06
2022-08-11T18:35:10.223Z,46.03
2022-08-11T18:37:30.331Z,46.42
2022-08-11T18:39:56.181Z,46.12
2022-08-11T18:42:26.655Z,46.61
2022-08-11T18:44:49.660Z,46.27
2022-08-11T18:47:10.378Z,46.29
2022-08-11T18:50:01.572Z,45.61
2022-08-11T18:52:11.227Z,44.79
2022-08-11T18:54:31.321Z,44.54
2022-08-11T18:56:51.238Z,44.59
2022-08-11T18:59:11.152Z,44.42
2022-08-11T19:01:31.099Z,44.67
2022-08-11T19:03:51.066Z,44.30
2022-08-11T19:06:39.047Z,44.70
2022-08-11T19:08:51.854Z,44.65
2022-08-11T19:11:12.002Z,44.73
2022-08-11T19:13:31.721Z,45.43
2022-08-11T19:15:51.487Z,44.39
2022-08-11T19:18:12.853Z,44.63
2022-08-11T19:20:32.600Z,44.52
2022-08-11T19:22:52.411Z,45.68
2022-08-11T19:25:12.526Z,45.30
2022-08-11T19:27:33.785Z,44.93
2022-08-11T19:30:04.662Z,44.79
2022-08-11T19:32:33.513Z,45.05
2022-08-11T19:34:53.278Z,45.97
2022-08-11T19:37:13.076Z,44.65
2022-08-11T19:39:33.166Z,44.83
2022-08-11T19:41:57.873Z,44.68
2022-08-11T19:44:17.924Z,44.70
2022-08-11T19:46:37.675Z,44.94
2022-08-11T19:48:57.537Z,45.23
2022-08-11T19:51:17.488Z,44.83
2022-08-11T19:53:37.769Z,45.32
2022-08-11T19:55:57.595Z,45.12
2022-08-11T19:58:17.514Z,45.36
2022-08-11T20:00:37.378Z,45.92
2022-08-11T20:02:57.357Z,46.12
2022-08-11T20:05:17.270Z,46.27
2022-08-11T20:07:37.206Z,46.62
2022-08-11T20:10:00.962Z,46.95
2022-08-11T20:12:26.269Z,46.66
2022-08-11T20:14:46.337Z,46.90
2022-08-11T20:17:06.159Z,46.97
2022-08-11T20:19:54.962Z,46.68
2022-08-11T20:22:08.933Z,46.83
2022-08-11T20:24:30.488Z,46.84
2022-08-11T20:26:50.356Z,46.99
2022-08-11T20:29:10.673Z,47.25
2022-08-11T20:31:30.951Z,47.08
2022-08-11T20:33:51.033Z,47.32
2022-08-11T20:36:11.032Z,47.35
2022-08-11T20:38:31.030Z,47.28
2022-08-11T20:40:50.868Z,47.19
2022-08-11T20:43:15.895Z,47.28
2022-08-11T20:45:55.323Z,47.45
2022-08-11T20:48:17.570Z,47.90
2022-08-11T20:50:37.452Z,47.78
2022-08-11T20:52:57.411Z,47.70
2022-08-11T20:55:19.225Z,47.68
2022-08-11T20:57:59.470Z,47.58
2022-08-11T21:00:38.565Z,47.71
2022-08-11T21:02:59.937Z,48.00
2022-08-11T21:05:21.654Z,47.82
2022-08-11T21:07:59.643Z,47.91
2022-08-11T21:10:23.821Z,47.79
2022-08-11T21:12:44.485Z,48.02
2022-08-11T21:15:10.767Z,48.07
2022-08-11T21:17:30.571Z,48.24
2022-08-11T21:20:00.389Z,47.97
2022-08-11T21:22:21.771Z,48.05
2022-08-11T21:24:48.151Z,48.09
2022-08-11T21:27:08.263Z,48.04
2022-08-11T21:29:36.259Z,47.95
2022-08-11T21:31:56.236Z,48.54
2022-08-11T21:34:16.224Z,49.34
2022-08-11T21:36:36.193Z,48.76
2022-08-11T21:38:56.454Z,48.60
2022-08-11T21:41:16.414Z,48.17
2022-08-11T21:43:36.520Z,48.61
2022-08-11T21:45:56.412Z,48.12
2022-08-11T21:48:16.210Z,48.46
2022-08-11T21:50:36.019Z,48.25
2022-08-11T21:52:56.004Z,48.57
2022-08-11T21:55:15.782Z,48.63
2022-08-11T21:57:35.920Z,48.44
2022-08-11T22:00:08.395Z,48.73
2022-08-11T22:02:28.590Z,48.74
2022-08-11T22:04:48.503Z,48.96
2022-08-11T22:07:08.506Z,48.60
2022-08-11T22:09:28.619Z,48.65
2022-08-11T22:11:48.696Z,49.25
2022-08-11T22:14:28.551Z,49.15
2022-08-11T22:16:48.605Z,49.39
2022-08-11T22:19:08.544Z,49.26
2022-08-11T22:21:57.011Z,49.44
2022-08-11T22:24:08.323Z,49.50
2022-08-11T22:26:29.767Z,48.82
2022-08-11T22:28:49.648Z,49.37
2022-08-11T22:31:09.454Z,49.36
2022-08-11T22:33:29.287Z,49.36
2022-08-11T22:35:49.528Z,49.49
2022-08-11T22:38:09.412Z,49.02
2022-08-11T22:40:29.535Z,49.37
2022-08-11T22:42:49.511Z,48.88
2022-08-11T22:45:09.375Z,48.90
2022-08-11T22:47:34.923Z,48.93
2022-08-11T22:50:00.749Z,49.24
2022-08-11T22:52:20.603Z,48.88
2022-08-11T22:54:40.426Z,48.93
2022-08-11T22:57:00.259Z,49.17
2022-08-11T22:59:20.102Z,49.27
2022-08-11T23:01:39.894Z,49.44
2022-08-11T23:04:16.261Z,48.91
2022-08-11T23:06:36.115Z,48.97
2022-08-11T23:08:56.027Z,48.93
2022-08-11T23:11:15.776Z,49.19
2022-08-11T23:13:35.720Z,49.06
2022-08-11T23:15:55.607Z,49.11
2022-08-11T23:18:15.554Z,49.08
2022-08-11T23:20:36.940Z,49.20
2022-08-11T23:23:03.830Z,48.99
2022-08-11T23:25:23.754Z,48.95
2022-08-11T23:27:43.586Z,49.02
2022-08-11T23:30:03.932Z,48.75
2022-08-11T23:32:24.486Z,48.81
2022-08-11T23:35:04.136Z,48.87
2022-08-11T23:37:24.472Z,48.64
2022-08-11T23:39:44.577Z,48.53
2022-08-11T23:42:04.712Z,49.08
2022-08-11T23:44:24.538Z,48.65
2022-08-11T23:46:44.269Z,48.78
2022-08-11T23:49:04.058Z,48.70
2022-08-11T23:51:23.900Z,48.82
2022-08-11T23:53:43.703Z,48.80
2022-08-11T23:56:03.500Z,48.84
2022-08-11T23:58:23.370Z,49.00
